sensor_id;sensor_type;location;lat;lon;timestamp;temperature;humidity
25536;DHT22;13431;51.352;6.412;2022-11-23T00:01:34;8.90;99.90
25536;DHT22;13431;51.352;6.412;2022-11-23T00:04:04;8.90;99.90
25536;DHT22;13431;51.352;6.412;2022-11-23T00:06:33;8.90;99.90
25536;DHT22;13431;51.352;6.412;2022-11-23T00:09:00;8.90;99.90
25536;DHT22;13431;51.352;6.412;2022-11-23T00:11:28;8.90;99.90
25536;DHT22;13431;51.352;6.412;2022-11-23T00:13:55;8.90;99.90
25536;DHT22;13431;51.352;6.412;2022-11-23T00:16:25;9.00;99.90
25536;DHT22;13431;51.352;6.412;2022-11-23T00:18:55;9.00;99.90
25536;DHT22;13431;51.352;6.412;2022-11-23T00:21:24;8.90;99.90
25536;DHT22;13431;51.352;6.412;2022-11-23T00:23:52;9.00;99.90
25536;DHT22;13431;51.352;6.412;2022-11-23T00:26:20;8.90;99.90
25536;DHT22;13431;51.352;6.412;2022-11-23T00:28:48;8.80;99.90
25536;DHT22;13431;51.352;6.412;2022-11-23T00:31:17;8.70;99.90
25536;DHT22;13431;51.352;6.412;2022-11-23T00:33:53;8.60;99.90
25536;DHT22;13431;51.352;6.412;2022-11-23T00:36:22;8.50;99.90
25536;DHT22;13431;51.352;6.412;2022-11-23T00:38:51;8.50;99.90
25536;DHT22;13431;51.352;6.412;2022-11-23T00:41:23;8.60;99.90
25536;DHT22;13431;51.352;6.412;2022-11-23T00:43:50;8.50;99.90
25536;DHT22;13431;51.352;6.412;2022-11-23T00:46:23;8.60;99.90
25536;DHT22;13431;51.352;6.412;2022-11-23T00:48:53;8.50;99.90
25536;DHT22;13431;51.352;6.412;2022-11-23T00:51:27;8.60;99.90
25536;DHT22;13431;51.352;6.412;2022-11-23T00:53:55;8.60;99.90
25536;DHT22;13431;51.352;6.412;2022-11-23T00:56:25;8.60;99.90
25536;DHT22;13431;51.352;6.412;2022-11-23T00:58:54;8.60;99.90
25536;DHT22;13431;51.352;6.412;2022-11-23T01:01:24;8.60;99.90
25536;DHT22;13431;51.352;6.412;2022-11-23T01:03:54;8.60;99.90
25536;DHT22;13431;51.352;6.412;2022-11-23T01:06:27;8.60;99.90
25536;DHT22;13431;51.352;6.412;2022-11-23T01:08:57;8.60;99.90
25536;DHT22;13431;51.352;6.412;2022-11-23T01:11:27;8.60;99.90
25536;DHT22;13431;51.352;6.412;2022-11-23T01:13:55;8.60;99.90
25536;DHT22;13431;51.352;6.412;2022-11-23T01:16:25;8.60;99.90
25536;DHT22;13431;51.352;6.412;2022-11-23T01:18:53;8.60;99.90
25536;DHT22;13431;51.352;6.412;2022-11-23T01:21:23;8.70;99.90
25536;DHT22;13431;51.352;6.412;2022-11-23T01:23:51;8.70;99.90
25536;DHT22;13431;51.352;6.412;2022-11-23T01:26:18;8.70;99.90
25536;DHT22;13431;51.352;6.412;2022-11-23T01:28:46;8.70;99.90
25536;DHT22;13431;51.352;6.412;2022-11-23T01:31:19;8.70;99.90
25536;DHT22;13431;51.352;6.412;2022-11-23T01:33:46;8.70;99.90
25536;DHT22;13431;51.352;6.412;2022-11-23T01:36:15;8.80;99.90
25536;DHT22;13431;51.352;6.412;2022-11-23T01:38:44;8.80;99.90
25536;DHT22;13431;51.352;6.412;2022-11-23T01:41:14;8.80;99.90
25536;DHT22;13431;51.352;6.412;2022-11-23T01:43:42;8.80;99.90
25536;DHT22;13431;51.352;6.412;2022-11-23T01:46:10;8.70;99.90
25536;DHT22;13431;51.352;6.412;2022-11-23T01:48:42;8.80;99.90
25536;DHT22;13431;51.352;6.412;2022-11-23T01:51:24;8.70;99.90
25536;DHT22;13431;51.352;6.412;2022-11-23T01:53:54;8.80;99.90
25536;DHT22;13431;51.352;6.412;2022-11-23T01:56:27;8.80;99.90
25536;DHT22;13431;51.352;6.412;2022-11-23T01:58:58;8.80;99.90
25536;DHT22;13431;51.352;6.412;2022-11-23T02:01:27;8.80;99.90
25536;DHT22;13431;51.352;6.412;2022-11-23T02:03:58;8.90;99.90
25536;DHT22;13431;51.352;6.412;2022-11-23T02:06:27;8.90;99.90
25536;DHT22;13431;51.352;6.412;2022-11-23T02:08:55;8.90;99.90
25536;DHT22;13431;51.352;6.412;2022-11-23T02:11:23;8.90;99.90
25536;DHT22;13431;51.352;6.412;2022-11-23T02:13:50;8.90;99.90
25536;DHT22;13431;51.352;6.412;2022-11-23T02:16:18;9.00;99.90
25536;DHT22;13431;51.352;6.412;2022-11-23T02:18:47;9.00;99.90
25536;DHT22;13431;51.352;6.412;2022-11-23T02:21:19;9.00;99.90
25536;DHT22;13431;51.352;6.412;2022-11-23T02:24:00;9.00;99.90
25536;DHT22;13431;51.352;6.412;2022-11-23T02:26:32;9.10;99.90
25536;DHT22;13431;51.352;6.412;2022-11-23T02:29:06;9.00;99.90
25536;DHT22;13431;51.352;6.412;2022-11-23T02:31:35;9.00;99.90
25536;DHT22;13431;51.352;6.412;2022-11-23T02:34:02;9.00;99.90
25536;DHT22;13431;51.352;6.412;2022-11-23T02:36:34;9.00;99.90
25536;DHT22;13431;51.352;6.412;2022-11-23T02:41:57;9.00;99.90
25536;DHT22;13431;51.352;6.412;2022-11-23T02:47:08;9.00;99.90
25536;DHT22;13431;51.352;6.412;2022-11-23T02:49:41;9.00;99.90
25536;DHT22;13431;51.352;6.412;2022-11-23T02:52:09;9.10;99.90
25536;DHT22;13431;51.352;6.412;2022-11-23T02:54:36;9.00;99.90
25536;DHT22;13431;51.352;6.412;2022-11-23T02:57:04;9.00;99.90
25536;DHT22;13431;51.352;6.412;2022-11-23T02:59:33;9.00;99.90
25536;DHT22;13431;51.352;6.412;2022-11-23T03:02:02;9.00;99.90
25536;DHT22;13431;51.352;6.412;2022-11-23T03:04:30;9.00;99.90
25536;DHT22;13431;51.352;6.412;2022-11-23T03:06:58;9.00;99.90
25536;DHT22;13431;51.352;6.412;2022-11-23T03:09:25;9.00;99.90
25536;DHT22;13431;51.352;6.412;2022-11-23T03:11:54;9.00;99.90
25536;DHT22;13431;51.352;6.412;2022-11-23T03:14:23;9.00;99.90
25536;DHT22;13431;51.352;6.412;2022-11-23T03:16:58;9.00;99.90
25536;DHT22;13431;51.352;6.412;2022-11-23T03:19:26;8.90;99.90
25536;DHT22;13431;51.352;6.412;2022-11-23T03:21:54;8.90;99.90
25536;DHT22;13431;51.352;6.412;2022-11-23T03:24:21;8.90;99.90
25536;DHT22;13431;51.352;6.412;2022-11-23T03:26:50;8.90;99.90
25536;DHT22;13431;51.352;6.412;2022-11-23T03:29:19;8.90;99.90
25536;DHT22;13431;51.352;6.412;2022-11-23T03:31:47;9.00;99.90
25536;DHT22;13431;51.352;6.412;2022-11-23T03:34:16;9.00;99.90
25536;DHT22;13431;51.352;6.412;2022-11-23T03:36:44;8.90;99.90
25536;DHT22;13431;51.352;6.412;2022-11-23T03:39:12;8.90;99.90
25536;DHT22;13431;51.352;6.412;2022-11-23T03:42:00;8.90;99.90
25536;DHT22;13431;51.352;6.412;2022-11-23T03:44:33;8.90;99.90
25536;DHT22;13431;51.352;6.412;2022-11-23T03:47:00;9.00;99.90
25536;DHT22;13431;51.352;6.412;2022-11-23T03:49:28;9.00;99.90
25536;DHT22;13431;51.352;6.412;2022-11-23T03:51:56;9.00;99.90
25536;DHT22;13431;51.352;6.412;2022-11-23T03:54:23;9.00;99.90
25536;DHT22;13431;51.352;6.412;2022-11-23T03:56:50;9.00;99.90
25536;DHT22;13431;51.352;6.412;2022-11-23T03:59:18;9.00;99.90
25536;DHT22;13431;51.352;6.412;2022-11-23T04:01:45;9.00;99.90
25536;DHT22;13431;51.352;6.412;2022-11-23T04:04:19;8.90;99.90
25536;DHT22;13431;51.352;6.412;2022-11-23T04:07:09;9.00;99.90
25536;DHT22;13431;51.352;6.412;2022-11-23T04:09:41;8.90;99.90
25536;DHT22;13431;51.352;6.412;2022-11-23T04:12:27;8.90;99.90
25536;DHT22;13431;51.352;6.412;2022-11-23T04:14:55;8.90;99.90
25536;DHT22;13431;51.352;6.412;2022-11-23T04:17:23;8.90;99.90
25536;DHT22;13431;51.352;6.412;2022-11-23T04:19:51;9.00;99.90
25536;DHT22;13431;51.352;6.412;2022-11-23T04:22:19;8.90;99.90
25536;DHT22;13431;51.352;6.412;2022-11-23T04:24:47;8.90;99.90
25536;DHT22;13431;51.352;6.412;2022-11-23T04:27:15;9.00;99.90
25536;DHT22;13431;51.352;6.412;2022-11-23T04:29:42;8.90;99.90
25536;DHT22;13431;51.352;6.412;2022-11-23T04:32:10;9.00;99.90
25536;DHT22;13431;51.352;6.412;2022-11-23T04:34:38;8.90;99.90
25536;DHT22;13431;51.352;6.412;2022-11-23T04:37:07;9.00;99.90
25536;DHT22;13431;51.352;6.412;2022-11-23T04:39:41;9.00;99.90
25536;DHT22;13431;51.352;6.412;2022-11-23T04:42:17;9.00;99.90
25536;DHT22;13431;51.352;6.412;2022-11-23T04:44:50;9.00;99.90
25536;DHT22;13431;51.352;6.412;2022-11-23T04:47:20;9.00;99.90
25536;DHT22;13431;51.352;6.412;2022-11-23T04:49:48;9.00;99.90
25536;DHT22;13431;51.352;6.412;2022-11-23T04:52:16;9.00;99.90
25536;DHT22;13431;51.352;6.412;2022-11-23T04:54:46;9.10;99.90
25536;DHT22;13431;51.352;6.412;2022-11-23T04:57:13;9.00;99.90
25536;DHT22;13431;51.352;6.412;2022-11-23T04:59:42;9.00;99.90
25536;DHT22;13431;51.352;6.412;2022-11-23T05:02:10;9.00;99.90
25536;DHT22;13431;51.352;6.412;2022-11-23T05:04:45;9.00;99.90
25536;DHT22;13431;51.352;6.412;2022-11-23T05:07:15;9.00;99.90
25536;DHT22;13431;51.352;6.412;2022-11-23T05:09:46;9.00;99.90
25536;DHT22;13431;51.352;6.412;2022-11-23T05:12:19;9.00;99.90
25536;DHT22;13431;51.352;6.412;2022-11-23T05:14:47;8.90;99.90
25536;DHT22;13431;51.352;6.412;2022-11-23T05:17:20;8.90;99.90
25536;DHT22;13431;51.352;6.412;2022-11-23T05:19:49;8.90;99.90
25536;DHT22;13431;51.352;6.412;2022-11-23T05:22:17;8.90;99.90
25536;DHT22;13431;51.352;6.412;2022-11-23T05:24:44;8.90;99.90
25536;DHT22;13431;51.352;6.412;2022-11-23T05:27:16;8.90;99.90
25536;DHT22;13431;51.352;6.412;2022-11-23T05:29:44;8.90;99.90
25536;DHT22;13431;51.352;6.412;2022-11-23T05:32:13;8.90;99.90
25536;DHT22;13431;51.352;6.412;2022-11-23T05:34:40;8.90;99.90
25536;DHT22;13431;51.352;6.412;2022-11-23T05:37:09;8.80;99.90
25536;DHT22;13431;51.352;6.412;2022-11-23T05:39:45;8.80;99.90
25536;DHT22;13431;51.352;6.412;2022-11-23T05:42:14;8.80;99.90
25536;DHT22;13431;51.352;6.412;2022-11-23T05:44:42;8.70;99.90
25536;DHT22;13431;51.352;6.412;2022-11-23T05:47:19;8.60;99.90
25536;DHT22;13431;51.352;6.412;2022-11-23T05:49:47;8.60;99.90
25536;DHT22;13431;51.352;6.412;2022-11-23T05:52:18;8.70;99.90
25536;DHT22;13431;51.352;6.412;2022-11-23T05:54:46;8.70;99.90
25536;DHT22;13431;51.352;6.412;2022-11-23T05:57:14;8.70;99.90
25536;DHT22;13431;51.352;6.412;2022-11-23T05:59:43;8.70;99.90
25536;DHT22;13431;51.352;6.412;2022-11-23T06:02:18;8.70;99.90
25536;DHT22;13431;51.352;6.412;2022-11-23T06:04:48;8.70;99.90
25536;DHT22;13431;51.352;6.412;2022-11-23T06:07:20;8.70;99.90
25536;DHT22;13431;51.352;6.412;2022-11-23T06:10:13;8.70;99.90
25536;DHT22;13431;51.352;6.412;2022-11-23T06:12:45;8.70;99.90
25536;DHT22;13431;51.352;6.412;2022-11-23T06:15:16;8.70;99.90
25536;DHT22;13431;51.352;6.412;2022-11-23T06:17:45;8.70;99.90
25536;DHT22;13431;51.352;6.412;2022-11-23T06:20:17;8.70;99.90
25536;DHT22;13431;51.352;6.412;2022-11-23T06:22:54;8.70;99.90
25536;DHT22;13431;51.352;6.412;2022-11-23T06:25:23;8.60;99.90
25536;DHT22;13431;51.352;6.412;2022-11-23T06:28:06;8.60;99.90
25536;DHT22;13431;51.352;6.412;2022-11-23T06:30:40;8.60;99.90
25536;DHT22;13431;51.352;6.412;2022-11-23T06:33:07;8.60;99.90
25536;DHT22;13431;51.352;6.412;2022-11-23T06:35:54;8.50;99.90
25536;DHT22;13431;51.352;6.412;2022-11-23T06:38:24;8.50;99.90
25536;DHT22;13431;51.352;6.412;2022-11-23T06:41:00;8.50;99.90
25536;DHT22;13431;51.352;6.412;2022-11-23T06:43:30;8.50;99.90
25536;DHT22;13431;51.352;6.412;2022-11-23T06:46:05;8.50;99.90
25536;DHT22;13431;51.352;6.412;2022-11-23T06:48:37;8.40;99.90
25536;DHT22;13431;51.352;6.412;2022-11-23T06:51:06;8.40;99.90
25536;DHT22;13431;51.352;6.412;2022-11-23T06:53:35;8.40;99.90
25536;DHT22;13431;51.352;6.412;2022-11-23T06:56:06;8.30;99.90
25536;DHT22;13431;51.352;6.412;2022-11-23T06:58:35;8.40;99.90
25536;DHT22;13431;51.352;6.412;2022-11-23T07:01:08;8.40;99.90
25536;DHT22;13431;51.352;6.412;2022-11-23T07:03:48;8.40;99.90
25536;DHT22;13431;51.352;6.412;2022-11-23T07:06:25;8.50;99.90
25536;DHT22;13431;51.352;6.412;2022-11-23T07:08:55;8.60;99.90
25536;DHT22;13431;51.352;6.412;2022-11-23T07:11:47;8.50;99.90
25536;DHT22;13431;51.352;6.412;2022-11-23T07:14:15;8.50;99.90
25536;DHT22;13431;51.352;6.412;2022-11-23T07:16:46;8.50;99.90
25536;DHT22;13431;51.352;6.412;2022-11-23T07:19:14;8.50;99.90
25536;DHT22;13431;51.352;6.412;2022-11-23T07:21:42;8.50;99.90
25536;DHT22;13431;51.352;6.412;2022-11-23T07:24:10;8.50;99.90
25536;DHT22;13431;51.352;6.412;2022-11-23T07:26:37;8.50;99.90
25536;DHT22;13431;51.352;6.412;2022-11-23T07:29:05;8.50;99.90
25536;DHT22;13431;51.352;6.412;2022-11-23T07:31:32;8.50;99.90
25536;DHT22;13431;51.352;6.412;2022-11-23T07:34:00;8.50;99.90
25536;DHT22;13431;51.352;6.412;2022-11-23T07:36:28;8.60;99.90
25536;DHT22;13431;51.352;6.412;2022-11-23T07:38:55;8.60;99.90
25536;DHT22;13431;51.352;6.412;2022-11-23T07:41:23;8.60;99.90
25536;DHT22;13431;51.352;6.412;2022-11-23T07:44:00;8.60;99.90
25536;DHT22;13431;51.352;6.412;2022-11-23T07:46:27;8.60;99.90
25536;DHT22;13431;51.352;6.412;2022-11-23T07:48:55;8.70;99.90
25536;DHT22;13431;51.352;6.412;2022-11-23T07:51:28;8.80;99.90
25536;DHT22;13431;51.352;6.412;2022-11-23T07:53:55;8.80;99.90
25536;DHT22;13431;51.352;6.412;2022-11-23T07:56:23;8.80;99.90
25536;DHT22;13431;51.352;6.412;2022-11-23T07:58:51;8.80;99.90
25536;DHT22;13431;51.352;6.412;2022-11-23T08:01:19;8.80;99.90
25536;DHT22;13431;51.352;6.412;2022-11-23T08:03:47;8.50;99.90
25536;DHT22;13431;51.352;6.412;2022-11-23T08:06:15;8.30;99.90
25536;DHT22;13431;51.352;6.412;2022-11-23T08:08:42;8.30;99.90
25536;DHT22;13431;51.352;6.412;2022-11-23T08:11:10;8.50;99.90
25536;DHT22;13431;51.352;6.412;2022-11-23T08:13:40;8.70;99.90
25536;DHT22;13431;51.352;6.412;2022-11-23T08:16:08;8.50;99.90
25536;DHT22;13431;51.352;6.412;2022-11-23T08:18:35;8.80;99.90
25536;DHT22;13431;51.352;6.412;2022-11-23T08:21:03;9.10;99.90
25536;DHT22;13431;51.352;6.412;2022-11-23T08:23:30;9.30;99.90
25536;DHT22;13431;51.352;6.412;2022-11-23T08:25:58;9.50;99.90
25536;DHT22;13431;51.352;6.412;2022-11-23T08:28:25;9.80;99.90
25536;DHT22;13431;51.352;6.412;2022-11-23T08:30:53;10.30;99.90
25536;DHT22;13431;51.352;6.412;2022-11-23T08:33:20;10.20;99.90
25536;DHT22;13431;51.352;6.412;2022-11-23T08:35:47;10.20;99.90
25536;DHT22;13431;51.352;6.412;2022-11-23T08:38:14;9.90;99.90
25536;DHT22;13431;51.352;6.412;2022-11-23T08:40:42;9.80;99.90
25536;DHT22;13431;51.352;6.412;2022-11-23T08:43:09;10.20;99.90
25536;DHT22;13431;51.352;6.412;2022-11-23T08:45:36;10.30;99.90
25536;DHT22;13431;51.352;6.412;2022-11-23T08:48:04;10.70;99.90
25536;DHT22;13431;51.352;6.412;2022-11-23T08:50:32;10.60;99.90
25536;DHT22;13431;51.352;6.412;2022-11-23T08:53:01;10.50;99.90
25536;DHT22;13431;51.352;6.412;2022-11-23T08:55:28;11.00;99.90
25536;DHT22;13431;51.352;6.412;2022-11-23T08:57:57;11.80;99.90
25536;DHT22;13431;51.352;6.412;2022-11-23T09:00:25;12.50;99.90
25536;DHT22;13431;51.352;6.412;2022-11-23T09:02:54;13.00;99.90
25536;DHT22;13431;51.352;6.412;2022-11-23T09:05:23;13.30;99.90
25536;DHT22;13431;51.352;6.412;2022-11-23T09:07:50;13.60;99.90
25536;DHT22;13431;51.352;6.412;2022-11-23T09:10:18;14.30;99.90
25536;DHT22;13431;51.352;6.412;2022-11-23T09:12:48;14.70;99.90
25536;DHT22;13431;51.352;6.412;2022-11-23T09:15:16;14.90;99.90
25536;DHT22;13431;51.352;6.412;2022-11-23T09:17:43;15.10;99.90
25536;DHT22;13431;51.352;6.412;2022-11-23T09:20:11;15.10;99.90
25536;DHT22;13431;51.352;6.412;2022-11-23T09:22:38;15.40;99.90
25536;DHT22;13431;51.352;6.412;2022-11-23T09:25:06;14.60;99.90
25536;DHT22;13431;51.352;6.412;2022-11-23T09:27:35;14.90;99.90
25536;DHT22;13431;51.352;6.412;2022-11-23T09:30:02;15.80;99.90
25536;DHT22;13431;51.352;6.412;2022-11-23T09:32:31;15.30;99.90
25536;DHT22;13431;51.352;6.412;2022-11-23T09:34:59;15.80;99.90
25536;DHT22;13431;51.352;6.412;2022-11-23T09:37:26;15.60;99.90
25536;DHT22;13431;51.352;6.412;2022-11-23T09:39:53;15.40;99.90
25536;DHT22;13431;51.352;6.412;2022-11-23T09:42:56;16.10;99.90
25536;DHT22;13431;51.352;6.412;2022-11-23T09:45:34;15.60;99.90
25536;DHT22;13431;51.352;6.412;2022-11-23T09:51:17;15.90;99.90
25536;DHT22;13431;51.352;6.412;2022-11-23T09:54:18;15.80;99.90
25536;DHT22;13431;51.352;6.412;2022-11-23T09:56:49;16.30;99.90
25536;DHT22;13431;51.352;6.412;2022-11-23T10:01:57;15.70;99.90
25536;DHT22;13431;51.352;6.412;2022-11-23T10:04:24;16.40;99.90
25536;DHT22;13431;51.352;6.412;2022-11-23T10:07:09;16.10;99.90
25536;DHT22;13431;51.352;6.412;2022-11-23T10:26:16;17.10;98.60
25536;DHT22;13431;51.352;6.412;2022-11-23T10:28:45;17.50;96.60
25536;DHT22;13431;51.352;6.412;2022-11-23T10:31:20;16.50;99.90
25536;DHT22;13431;51.352;6.412;2022-11-23T10:36:19;14.80;99.90
25536;DHT22;13431;51.352;6.412;2022-11-23T10:38:51;15.20;99.90
25536;DHT22;13431;51.352;6.412;2022-11-23T10:41:20;14.80;99.90
25536;DHT22;13431;51.352;6.412;2022-11-23T10:51:50;10.90;99.90
25536;DHT22;13431;51.352;6.412;2022-11-23T10:57:19;10.60;99.90
25536;DHT22;13431;51.352;6.412;2022-11-23T11:00:04;10.60;99.90
25536;DHT22;13431;51.352;6.412;2022-11-23T11:02:42;10.50;99.90
25536;DHT22;13431;51.352;6.412;2022-11-23T11:08:14;10.50;99.90
25536;DHT22;13431;51.352;6.412;2022-11-23T11:15:59;10.50;99.90
25536;DHT22;13431;51.352;6.412;2022-11-23T11:18:29;10.40;99.90
25536;DHT22;13431;51.352;6.412;2022-11-23T11:21:00;10.50;99.90
25536;DHT22;13431;51.352;6.412;2022-11-23T11:23:29;10.50;99.90
25536;DHT22;13431;51.352;6.412;2022-11-23T11:26:12;10.40;99.90
25536;DHT22;13431;51.352;6.412;2022-11-23T11:28:46;10.50;99.90
25536;DHT22;13431;51.352;6.412;2022-11-23T11:31:34;10.40;99.90
25536;DHT22;13431;51.352;6.412;2022-11-23T11:34:17;10.50;99.90
25536;DHT22;13431;51.352;6.412;2022-11-23T11:42:31;10.90;99.90
25536;DHT22;13431;51.352;6.412;2022-11-23T11:45:00;11.10;99.90
25536;DHT22;13431;51.352;6.412;2022-11-23T11:50:19;11.40;99.90
25536;DHT22;13431;51.352;6.412;2022-11-23T11:52:55;11.30;99.90
25536;DHT22;13431;51.352;6.412;2022-11-23T11:58:14;11.20;99.90
25536;DHT22;13431;51.352;6.412;2022-11-23T12:00:42;11.30;99.90
25536;DHT22;13431;51.352;6.412;2022-11-23T12:03:41;11.40;99.90
25536;DHT22;13431;51.352;6.412;2022-11-23T12:06:36;11.50;99.90
25536;DHT22;13431;51.352;6.412;2022-11-23T12:09:28;11.50;99.90
25536;DHT22;13431;51.352;6.412;2022-11-23T12:11:58;11.60;99.90
25536;DHT22;13431;51.352;6.412;2022-11-23T12:14:25;11.60;99.90
25536;DHT22;13431;51.352;6.412;2022-11-23T12:25:36;11.30;99.90
25536;DHT22;13431;51.352;6.412;2022-11-23T12:28:20;11.50;99.90
25536;DHT22;13431;51.352;6.412;2022-11-23T12:33:53;11.30;99.90
25536;DHT22;13431;51.352;6.412;2022-11-23T12:36:39;11.00;99.90
25536;DHT22;13431;51.352;6.412;2022-11-23T12:42:10;10.50;99.90
25536;DHT22;13431;51.352;6.412;2022-11-23T12:48:03;10.30;99.90
25536;DHT22;13431;51.352;6.412;2022-11-23T12:51:32;10.30;99.90
25536;DHT22;13431;51.352;6.412;2022-11-23T12:59:49;10.20;99.90
25536;DHT22;13431;51.352;6.412;2022-11-23T13:23:10;9.90;99.90
25536;DHT22;13431;51.352;6.412;2022-11-23T13:25:38;9.80;99.90
25536;DHT22;13431;51.352;6.412;2022-11-23T13:28:28;9.90;99.90
25536;DHT22;13431;51.352;6.412;2022-11-23T13:33:47;9.70;99.90
25536;DHT22;13431;51.352;6.412;2022-11-23T13:42:10;9.50;99.90
25536;DHT22;13431;51.352;6.412;2022-11-23T13:44:37;9.40;99.90
25536;DHT22;13431;51.352;6.412;2022-11-23T13:47:18;9.40;99.90
25536;DHT22;13431;51.352;6.412;2022-11-23T13:49:51;9.50;99.90
25536;DHT22;13431;51.352;6.412;2022-11-23T13:57:40;9.40;99.90
25536;DHT22;13431;51.352;6.412;2022-11-23T14:06:35;9.40;99.90
25536;DHT22;13431;51.352;6.412;2022-11-23T14:14:28;9.60;99.90
25536;DHT22;13431;51.352;6.412;2022-11-23T14:17:01;9.70;99.90
25536;DHT22;13431;51.352;6.412;2022-11-23T14:20:06;9.80;99.90
25536;DHT22;13431;51.352;6.412;2022-11-23T14:22:42;9.90;99.90
25536;DHT22;13431;51.352;6.412;2022-11-23T14:39:57;10.00;99.90
25536;DHT22;13431;51.352;6.412;2022-11-23T14:42:27;10.00;99.90
25536;DHT22;13431;51.352;6.412;2022-11-23T14:45:00;10.10;99.90
25536;DHT22;13431;51.352;6.412;2022-11-23T14:47:30;10.10;99.90
25536;DHT22;13431;51.352;6.412;2022-11-23T14:49:57;10.10;99.90
25536;DHT22;13431;51.352;6.412;2022-11-23T14:52:32;10.00;99.90
25536;DHT22;13431;51.352;6.412;2022-11-23T14:55:03;10.00;99.90
25536;DHT22;13431;51.352;6.412;2022-11-23T14:57:39;10.00;99.90
25536;DHT22;13431;51.352;6.412;2022-11-23T15:00:41;10.00;99.90
25536;DHT22;13431;51.352;6.412;2022-11-23T15:03:16;10.00;99.90
25536;DHT22;13431;51.352;6.412;2022-11-23T15:06:09;9.80;99.90
25536;DHT22;13431;51.352;6.412;2022-11-23T15:08:49;9.50;99.90
25536;DHT22;13431;51.352;6.412;2022-11-23T15:11:27;9.20;99.90
25536;DHT22;13431;51.352;6.412;2022-11-23T15:13:55;9.10;99.90
25536;DHT22;13431;51.352;6.412;2022-11-23T15:16:28;8.90;99.90
25536;DHT22;13431;51.352;6.412;2022-11-23T15:18:56;8.80;99.90
25536;DHT22;13431;51.352;6.412;2022-11-23T15:21:25;8.80;99.90
25536;DHT22;13431;51.352;6.412;2022-11-23T15:23:56;8.70;99.90
25536;DHT22;13431;51.352;6.412;2022-11-23T15:26:28;8.70;99.90
25536;DHT22;13431;51.352;6.412;2022-11-23T15:31:57;8.60;99.90
25536;DHT22;13431;51.352;6.412;2022-11-23T15:34:45;8.50;99.90
25536;DHT22;13431;51.352;6.412;2022-11-23T15:37:13;8.50;99.90
25536;DHT22;13431;51.352;6.412;2022-11-23T15:39:41;8.40;99.90
25536;DHT22;13431;51.352;6.412;2022-11-23T15:42:19;8.30;99.90
25536;DHT22;13431;51.352;6.412;2022-11-23T15:44:49;8.30;99.90
25536;DHT22;13431;51.352;6.412;2022-11-23T15:47:28;8.20;99.90
25536;DHT22;13431;51.352;6.412;2022-11-23T15:50:02;8.20;99.90
25536;DHT22;13431;51.352;6.412;2022-11-23T15:52:33;8.20;99.90
25536;DHT22;13431;51.352;6.412;2022-11-23T15:55:12;8.20;99.90
25536;DHT22;13431;51.352;6.412;2022-11-23T15:57:41;8.10;99.90
25536;DHT22;13431;51.352;6.412;2022-11-23T16:00:21;8.10;99.90
25536;DHT22;13431;51.352;6.412;2022-11-23T16:02:49;8.10;99.90
25536;DHT22;13431;51.352;6.412;2022-11-23T16:05:22;8.00;99.90
25536;DHT22;13431;51.352;6.412;2022-11-23T16:12:58;7.90;99.90
25536;DHT22;13431;51.352;6.412;2022-11-23T16:18:00;7.90;99.90
25536;DHT22;13431;51.352;6.412;2022-11-23T16:20:30;7.90;99.90
25536;DHT22;13431;51.352;6.412;2022-11-23T16:22:58;7.90;99.90
25536;DHT22;13431;51.352;6.412;2022-11-23T16:25:31;7.90;99.90
25536;DHT22;13431;51.352;6.412;2022-11-23T16:30:36;7.90;99.90
25536;DHT22;13431;51.352;6.412;2022-11-23T16:33:04;7.90;99.90
25536;DHT22;13431;51.352;6.412;2022-11-23T16:35:32;7.90;99.90
25536;DHT22;13431;51.352;6.412;2022-11-23T16:37:59;7.90;99.90
25536;DHT22;13431;51.352;6.412;2022-11-23T16:40:26;7.80;99.90
25536;DHT22;13431;51.352;6.412;2022-11-23T16:42:54;7.90;99.90
25536;DHT22;13431;51.352;6.412;2022-11-23T16:45:21;7.80;99.90
25536;DHT22;13431;51.352;6.412;2022-11-23T16:48:00;7.80;99.90
25536;DHT22;13431;51.352;6.412;2022-11-23T16:50:32;7.80;99.90
25536;DHT22;13431;51.352;6.412;2022-11-23T16:53:08;7.80;99.90
25536;DHT22;13431;51.352;6.412;2022-11-23T16:55:37;7.80;99.90
25536;DHT22;13431;51.352;6.412;2022-11-23T16:58:13;7.80;99.90
25536;DHT22;13431;51.352;6.412;2022-11-23T17:00:41;7.80;99.90
25536;DHT22;13431;51.352;6.412;2022-11-23T17:03:13;7.80;99.90
25536;DHT22;13431;51.352;6.412;2022-11-23T17:05:41;7.70;99.90
25536;DHT22;13431;51.352;6.412;2022-11-23T17:08:08;7.70;99.90
25536;DHT22;13431;51.352;6.412;2022-11-23T17:10:37;7.70;99.90
25536;DHT22;13431;51.352;6.412;2022-11-23T17:13:09;7.70;99.90
25536;DHT22;13431;51.352;6.412;2022-11-23T17:15:38;7.60;99.90
25536;DHT22;13431;51.352;6.412;2022-11-23T17:18:12;7.60;99.90
25536;DHT22;13431;51.352;6.412;2022-11-23T17:20:40;7.60;99.90
25536;DHT22;13431;51.352;6.412;2022-11-23T17:23:08;7.60;99.90
25536;DHT22;13431;51.352;6.412;2022-11-23T17:25:36;7.60;99.90
25536;DHT22;13431;51.352;6.412;2022-11-23T17:28:05;7.50;99.90
25536;DHT22;13431;51.352;6.412;2022-11-23T17:30:36;7.50;99.90
25536;DHT22;13431;51.352;6.412;2022-11-23T17:33:03;7.50;99.90
25536;DHT22;13431;51.352;6.412;2022-11-23T17:35:31;7.50;99.90
25536;DHT22;13431;51.352;6.412;2022-11-23T17:38:05;7.40;99.90
25536;DHT22;13431;51.352;6.412;2022-11-23T17:40:33;7.40;99.90
25536;DHT22;13431;51.352;6.412;2022-11-23T17:43:01;7.40;99.90
25536;DHT22;13431;51.352;6.412;2022-11-23T17:45:28;7.40;99.90
25536;DHT22;13431;51.352;6.412;2022-11-23T17:47:56;7.40;99.90
25536;DHT22;13431;51.352;6.412;2022-11-23T17:50:29;7.40;99.90
25536;DHT22;13431;51.352;6.412;2022-11-23T17:52:56;7.50;99.90
25536;DHT22;13431;51.352;6.412;2022-11-23T17:55:24;7.50;99.90
25536;DHT22;13431;51.352;6.412;2022-11-23T17:57:51;7.40;99.90
25536;DHT22;13431;51.352;6.412;2022-11-23T18:00:21;7.50;99.90
25536;DHT22;13431;51.352;6.412;2022-11-23T18:02:49;7.50;99.90
25536;DHT22;13431;51.352;6.412;2022-11-23T18:05:16;7.50;99.90
25536;DHT22;13431;51.352;6.412;2022-11-23T18:07:51;7.50;99.90
25536;DHT22;13431;51.352;6.412;2022-11-23T18:10:18;7.60;99.90
25536;DHT22;13431;51.352;6.412;2022-11-23T18:12:46;7.60;99.90
25536;DHT22;13431;51.352;6.412;2022-11-23T18:15:14;7.60;99.90
25536;DHT22;13431;51.352;6.412;2022-11-23T18:17:41;7.60;99.90
25536;DHT22;13431;51.352;6.412;2022-11-23T18:20:09;7.60;99.90
25536;DHT22;13431;51.352;6.412;2022-11-23T18:22:37;7.70;99.90
25536;DHT22;13431;51.352;6.412;2022-11-23T18:25:05;7.70;99.90
25536;DHT22;13431;51.352;6.412;2022-11-23T18:27:32;7.70;99.90
25536;DHT22;13431;51.352;6.412;2022-11-23T18:30:00;7.80;99.90
25536;DHT22;13431;51.352;6.412;2022-11-23T18:32:27;7.80;99.90
25536;DHT22;13431;51.352;6.412;2022-11-23T18:34:55;7.80;99.90
25536;DHT22;13431;51.352;6.412;2022-11-23T18:37:22;7.80;99.90
25536;DHT22;13431;51.352;6.412;2022-11-23T18:39:49;7.80;99.90
25536;DHT22;13431;51.352;6.412;2022-11-23T18:42:17;7.70;99.90
25536;DHT22;13431;51.352;6.412;2022-11-23T18:44:44;7.80;99.90
25536;DHT22;13431;51.352;6.412;2022-11-23T18:47:11;7.70;99.90